Time;durP1;ratioP1;P1;durP2;ratioP2;P2;SDS_P1;SDS_P2;PMS_P1;PMS_P2;Temp;Humidity;BMP_temperature;BMP_pressure;BME280_temperature;BME280_humidity;BME280_pressure;Samples;Min_cycle;Max_cycle;Signal;HPM_P1;HPM_P2
2023/09/16 00:00:33;;;;;;;9.07;7.63;;;;;;;;;;5036617;28;20441;-75
2023/09/16 00:02:59;;;;;;;8.60;7.30;;;;;;;;;;5018338;28;20288;-76
2023/09/16 00:05:26;;;;;;;12.13;8.10;;;;;;;;;;5020459;28;20186;-76
2023/09/16 00:07:52;;;;;;;7.83;6.93;;;;;;;;;;5036850;28;20210;-78
2023/09/16 00:10:18;;;;;;;10.38;8.05;;;;;;;;;;5053316;28;20467;-78
2023/09/16 00:12:44;;;;;;;9.60;7.82;;;;;;;;;;5036410;28;20499;-78
2023/09/16 00:15:10;;;;;;;8.93;7.97;;;;;;;;;;5053724;28;20448;-78
2023/09/16 00:17:36;;;;;;;10.03;8.33;;;;;;;;;;5035897;28;20561;-78
2023/09/16 00:20:15;;;;;;;10.30;8.80;;;;;;;;;;5019324;28;20474;-79
2023/09/16 00:22:42;;;;;;;10.05;8.35;;;;;;;;;;5020838;28;20514;-78
2023/09/16 00:25:08;;;;;;;9.67;8.60;;;;;;;;;;5035358;28;20436;-78
2023/09/16 00:27:35;;;;;;;9.30;8.30;;;;;;;;;;5035597;28;20481;-78
2023/09/16 00:30:03;;;;;;;10.10;8.68;;;;;;;;;;5035230;28;20415;-78
2023/09/16 00:32:29;;;;;;;10.40;8.50;;;;;;;;;;5020288;28;20431;-78
2023/09/16 00:34:55;;;;;;;9.83;8.17;;;;;;;;;;5052194;28;20400;-78
2023/09/16 00:37:21;;;;;;;10.57;8.05;;;;;;;;;;5052999;28;20429;-78
2023/09/16 00:39:47;;;;;;;11.73;9.13;;;;;;;;;;5034740;28;20488;-78
2023/09/16 00:42:13;;;;;;;10.43;8.90;;;;;;;;;;5032438;28;20412;-78
2023/09/16 00:44:39;;;;;;;9.73;8.50;;;;;;;;;;5021980;28;20451;-76
2023/09/16 00:47:05;;;;;;;11.88;9.25;;;;;;;;;;5048602;28;20424;-79
2023/09/16 00:49:31;;;;;;;10.02;8.30;;;;;;;;;;5035353;28;20443;-78
2023/09/16 00:51:57;;;;;;;10.48;8.65;;;;;;;;;;5035169;28;20522;-78
2023/09/16 00:54:24;;;;;;;9.63;8.65;;;;;;;;;;5035905;28;20474;-78
2023/09/16 00:56:50;;;;;;;10.00;8.98;;;;;;;;;;5034434;28;20415;-77
2023/09/16 00:59:16;;;;;;;10.25;8.40;;;;;;;;;;5034007;28;20423;-77
2023/09/16 01:01:44;;;;;;;9.77;8.57;;;;;;;;;;5052000;28;20428;-77
2023/09/16 01:04:10;;;;;;;12.38;9.13;;;;;;;;;;5050568;28;20483;-77
2023/09/16 01:06:37;;;;;;;10.77;9.77;;;;;;;;;;5033883;28;20420;-77
2023/09/16 01:09:04;;;;;;;10.98;8.98;;;;;;;;;;5025650;28;20412;-77
2023/09/16 01:11:30;;;;;;;10.50;9.37;;;;;;;;;;5015140;28;20522;-77
2023/09/16 01:13:56;;;;;;;10.30;9.20;;;;;;;;;;5038843;28;20416;-77
2023/09/16 01:16:42;;;;;;;10.48;9.38;;;;;;;;;;5051413;28;20431;-77
2023/09/16 01:19:17;;;;;;;10.02;9.00;;;;;;;;;;5033234;28;20420;-77
2023/09/16 01:21:43;;;;;;;9.85;8.80;;;;;;;;;;5053101;28;20528;-76
2023/09/16 01:24:19;;;;;;;10.50;9.38;;;;;;;;;;5018192;28;20416;-76
2023/09/16 01:26:46;;;;;;;10.00;9.10;;;;;;;;;;5032474;28;20539;-77
2023/09/16 01:29:12;;;;;;;10.88;9.77;;;;;;;;;;5035643;28;20408;-77
2023/09/16 01:31:38;;;;;;;10.43;9.40;;;;;;;;;;5032516;28;20425;-75
2023/09/16 01:34:09;;;;;;;10.48;9.40;;;;;;;;;;5054337;28;20498;-75
2023/09/16 01:36:35;;;;;;;11.75;9.63;;;;;;;;;;5039216;28;20408;-75
2023/09/16 01:39:03;;;;;;;13.10;10.90;;;;;;;;;;5036440;28;20481;-75
2023/09/16 01:41:29;;;;;;;12.98;10.85;;;;;;;;;;5054985;28;20423;-76
2023/09/16 01:43:56;;;;;;;13.00;11.20;;;;;;;;;;5035628;28;20417;-78
2023/09/16 01:46:22;;;;;;;12.80;11.55;;;;;;;;;;5019564;28;20424;-78
2023/09/16 01:48:48;;;;;;;12.52;11.15;;;;;;;;;;5024242;28;20502;-78
2023/09/16 01:51:14;;;;;;;12.38;11.05;;;;;;;;;;5038756;28;20493;-78
2023/09/16 01:53:40;;;;;;;12.68;11.10;;;;;;;;;;5055764;28;20515;-78
2023/09/16 01:56:06;;;;;;;13.18;11.77;;;;;;;;;;5055711;28;20457;-78
2023/09/16 01:58:32;;;;;;;13.60;11.57;;;;;;;;;;5022198;28;20438;-79
2023/09/16 02:00:58;;;;;;;12.82;11.52;;;;;;;;;;5020651;28;20447;-78
2023/09/16 02:03:24;;;;;;;13.80;11.35;;;;;;;;;;5045454;28;20412;-75
2023/09/16 02:05:50;;;;;;;13.25;11.85;;;;;;;;;;5022186;28;20408;-75
2023/09/16 02:08:16;;;;;;;13.98;12.57;;;;;;;;;;5037888;28;20446;-76
2023/09/16 02:10:43;;;;;;;13.60;12.03;;;;;;;;;;5031575;28;20423;-75
2023/09/16 02:13:09;;;;;;;12.70;11.50;;;;;;;;;;5038603;28;20431;-76
2023/09/16 02:15:35;;;;;;;13.52;11.55;;;;;;;;;;5021676;28;20428;-75
2023/09/16 02:18:02;;;;;;;13.73;12.17;;;;;;;;;;5038211;28;20446;-75
2023/09/16 02:20:28;;;;;;;12.47;10.93;;;;;;;;;;5019009;28;20467;-76
2023/09/16 02:22:54;;;;;;;12.40;10.80;;;;;;;;;;5019156;28;20417;-76
2023/09/16 02:25:21;;;;;;;13.98;12.50;;;;;;;;;;5036047;28;20436;-76
2023/09/16 02:27:47;;;;;;;12.67;11.47;;;;;;;;;;5014077;28;20180;-76
2023/09/16 02:30:15;;;;;;;15.15;13.65;;;;;;;;;;5038422;28;20416;-78
2023/09/16 02:32:41;;;;;;;15.90;14.23;;;;;;;;;;5021648;28;20466;-78
2023/09/16 02:35:07;;;;;;;17.27;15.10;;;;;;;;;;5017727;28;20516;-78
2023/09/16 02:37:33;;;;;;;14.93;13.43;;;;;;;;;;5025894;28;20412;-75
2023/09/16 02:39:59;;;;;;;14.17;12.67;;;;;;;;;;5021303;28;20199;-75
2023/09/16 02:42:25;;;;;;;14.50;13.05;;;;;;;;;;5037580;28;20510;-75
2023/09/16 02:44:51;;;;;;;15.07;13.05;;;;;;;;;;5034501;28;20424;-76
2023/09/16 02:47:20;;;;;;;15.20;13.70;;;;;;;;;;5016022;28;20431;-76
2023/09/16 02:49:46;;;;;;;15.02;13.52;;;;;;;;;;5021766;28;20412;-76
2023/09/16 02:52:12;;;;;;;18.97;14.00;;;;;;;;;;5022168;28;20183;-76
2023/09/16 02:54:38;;;;;;;14.53;13.03;;;;;;;;;;5038698;28;20180;-78
2023/09/16 02:57:04;;;;;;;14.43;12.90;;;;;;;;;;5021525;28;20206;-78
2023/09/16 02:59:30;;;;;;;14.93;13.43;;;;;;;;;;5015919;28;20193;-78
2023/09/16 03:01:56;;;;;;;18.43;13.37;;;;;;;;;;5049185;28;20223;-78
2023/09/16 03:04:22;;;;;;;15.50;13.90;;;;;;;;;;5037899;28;20191;-78
2023/09/16 03:06:48;;;;;;;16.03;14.43;;;;;;;;;;5020936;28;20191;-78
2023/09/16 03:09:14;;;;;;;19.00;14.63;;;;;;;;;;5038322;28;20180;-78
2023/09/16 03:11:40;;;;;;;17.20;14.53;;;;;;;;;;5020851;28;20199;-75
2023/09/16 03:14:06;;;;;;;14.90;13.40;;;;;;;;;;5021523;28;20199;-75
2023/09/16 03:16:34;;;;;;;16.37;14.77;;;;;;;;;;5021168;28;20184;-75
2023/09/16 03:19:00;;;;;;;16.23;14.47;;;;;;;;;;5021257;28;20195;-76
2023/09/16 03:21:26;;;;;;;15.93;14.37;;;;;;;;;;5023237;28;20216;-75
2023/09/16 03:23:52;;;;;;;16.07;14.43;;;;;;;;;;5036472;28;20179;-75
2023/09/16 03:26:18;;;;;;;15.50;13.83;;;;;;;;;;5021166;28;20228;-75
2023/09/16 03:28:45;;;;;;;16.90;13.83;;;;;;;;;;5037336;28;20180;-75
2023/09/16 03:31:11;;;;;;;18.27;16.38;;;;;;;;;;5054317;28;20423;-75
2023/09/16 03:33:38;;;;;;;18.30;16.50;;;;;;;;;;5036060;28;20416;-75
2023/09/16 03:36:04;;;;;;;18.25;16.42;;;;;;;;;;5052745;28;20438;-75
2023/09/16 03:38:31;;;;;;;17.98;16.33;;;;;;;;;;5035049;28;20837;-75
2023/09/16 03:40:57;;;;;;;17.13;15.38;;;;;;;;;;5027303;28;20424;-75
2023/09/16 03:43:23;;;;;;;18.15;16.48;;;;;;;;;;5043491;28;20429;-75
2023/09/16 03:45:49;;;;;;;18.58;16.67;;;;;;;;;;5023736;28;20417;-76
2023/09/16 03:48:15;;;;;;;17.60;16.00;;;;;;;;;;5020257;28;20202;-76
2023/09/16 03:50:41;;;;;;;16.70;14.93;;;;;;;;;;5035308;28;20176;-76
2023/09/16 03:53:07;;;;;;;17.00;15.23;;;;;;;;;;5048446;28;20310;-76
2023/09/16 03:55:34;;;;;;;17.40;15.63;;;;;;;;;;5029542;28;20184;-76
2023/09/16 03:58:00;;;;;;;17.87;15.97;;;;;;;;;;5034917;28;20188;-76
2023/09/16 04:00:26;;;;;;;16.90;15.20;;;;;;;;;;5033517;28;20377;-75
2023/09/16 04:02:52;;;;;;;17.40;15.60;;;;;;;;;;5036441;28;20194;-75
2023/09/16 04:05:18;;;;;;;17.15;15.38;;;;;;;;;;5036260;28;20424;-75
2023/09/16 04:07:45;;;;;;;19.02;17.02;;;;;;;;;;5035444;28;20462;-76
2023/09/16 04:10:11;;;;;;;16.73;15.13;;;;;;;;;;5019987;28;20183;-75
2023/09/16 04:12:37;;;;;;;16.60;14.90;;;;;;;;;;5020348;28;20266;-75
2023/09/16 04:15:03;;;;;;;18.30;16.48;;;;;;;;;;5015532;28;20476;-75
2023/09/16 04:17:29;;;;;;;18.15;16.40;;;;;;;;;;5050374;28;20438;-76
2023/09/16 04:19:55;;;;;;;18.45;16.55;;;;;;;;;;5036121;28;20471;-76
2023/09/16 04:22:21;;;;;;;17.83;16.02;;;;;;;;;;5035895;28;20458;-76
2023/09/16 04:24:47;;;;;;;19.40;17.38;;;;;;;;;;5027515;28;20443;-76
2023/09/16 04:27:13;;;;;;;19.00;17.10;;;;;;;;;;5035201;28;20452;-76
2023/09/16 04:29:39;;;;;;;19.15;17.42;;;;;;;;;;5048017;28;20530;-76
2023/09/16 04:32:05;;;;;;;20.17;18.17;;;;;;;;;;5008072;28;20448;-76
2023/09/16 04:34:32;;;;;;;20.50;18.58;;;;;;;;;;5031532;28;20422;-76
2023/09/16 04:36:59;;;;;;;19.85;17.60;;;;;;;;;;5036044;28;20408;-76
2023/09/16 04:39:25;;;;;;;18.55;16.85;;;;;;;;;;5026100;28;20440;-76
2023/09/16 04:41:53;;;;;;;20.20;18.20;;;;;;;;;;5034877;28;20427;-76
2023/09/16 04:44:20;;;;;;;19.55;17.75;;;;;;;;;;5035812;28;20408;-76
2023/09/16 04:46:46;;;;;;;19.05;17.17;;;;;;;;;;5035629;28;20414;-76
2023/09/16 04:49:13;;;;;;;17.25;15.63;;;;;;;;;;5020374;28;20494;-76
2023/09/16 04:51:39;;;;;;;17.00;15.50;;;;;;;;;;5036680;28;20259;-78
2023/09/16 04:54:05;;;;;;;19.65;17.65;;;;;;;;;;5035163;28;20459;-78
2023/09/16 04:56:31;;;;;;;20.80;18.90;;;;;;;;;;5053216;28;20411;-78
2023/09/16 04:58:57;;;;;;;18.63;16.67;;;;;;;;;;5036870;28;20184;-78
2023/09/16 05:01:24;;;;;;;18.23;16.33;;;;;;;;;;5020250;28;20264;-78
2023/09/16 05:03:50;;;;;;;17.67;16.07;;;;;;;;;;5020317;28;20225;-78
2023/09/16 05:06:15;;;;;;;18.33;16.53;;;;;;;;;;5021840;28;20176;-79
2023/09/16 05:08:42;;;;;;;18.23;16.42;;;;;;;;;;5024197;28;20323;-77
2023/09/16 05:11:08;;;;;;;17.47;15.77;;;;;;;;;;5023291;28;20234;-76
2023/09/16 05:13:35;;;;;;;19.65;17.90;;;;;;;;;;5057224;28;20403;-76
2023/09/16 05:16:01;;;;;;;20.05;18.15;;;;;;;;;;5039430;28;20430;-76
2023/09/16 05:18:27;;;;;;;21.25;19.20;;;;;;;;;;5038869;28;20411;-77
2023/09/16 05:20:53;;;;;;;19.90;18.10;;;;;;;;;;5038928;28;20455;-77
2023/09/16 05:23:19;;;;;;;20.15;18.25;;;;;;;;;;5039038;28;20419;-76
2023/09/16 05:25:48;;;;;;;21.73;19.42;;;;;;;;;;5039178;28;20443;-76
2023/09/16 05:28:15;;;;;;;18.67;16.70;;;;;;;;;;5039764;28;20195;-76
2023/09/16 05:30:44;;;;;;;21.77;19.67;;;;;;;;;;5022470;28;20422;-77
2023/09/16 05:33:10;;;;;;;20.73;18.70;;;;;;;;;;5055455;28;20435;-75
2023/09/16 05:35:36;;;;;;;21.77;19.50;;;;;;;;;;5038344;28;20419;-77
2023/09/16 05:38:03;;;;;;;19.63;17.67;;;;;;;;;;5039869;28;20399;-75
2023/09/16 05:40:29;;;;;;;20.75;18.75;;;;;;;;;;5022328;28;20440;-76
2023/09/16 05:42:55;;;;;;;18.23;16.43;;;;;;;;;;5023444;28;20318;-77
2023/09/16 05:45:21;;;;;;;18.13;16.17;;;;;;;;;;5023162;28;20250;-77
2023/09/16 05:47:49;;;;;;;18.47;16.57;;;;;;;;;;5039764;28;20175;-77
2023/09/16 05:50:16;;;;;;;17.67;15.87;;;;;;;;;;5040239;28;20180;-77
2023/09/16 05:52:42;;;;;;;17.87;15.97;;;;;;;;;;5023264;28;20184;-77
2023/09/16 05:55:08;;;;;;;18.07;16.10;;;;;;;;;;5023652;28;20180;-77
2023/09/16 05:57:34;;;;;;;18.10;16.00;;;;;;;;;;5039715;28;20176;-76
2023/09/16 06:00:01;;;;;;;17.90;16.03;;;;;;;;;;5039501;28;20180;-76
2023/09/16 06:02:27;;;;;;;18.27;16.43;;;;;;;;;;5032529;28;20192;-76
2023/09/16 06:04:53;;;;;;;19.95;18.05;;;;;;;;;;5021532;28;20473;-76
2023/09/16 06:07:19;;;;;;;19.38;17.58;;;;;;;;;;5038056;28;20420;-76
2023/09/16 06:09:45;;;;;;;18.10;16.50;;;;;;;;;;5038486;28;20469;-76
2023/09/16 06:12:11;;;;;;;19.60;17.80;;;;;;;;;;5037449;28;20436;-76
2023/09/16 06:14:39;;;;;;;20.75;18.70;;;;;;;;;;5037274;28;20439;-77
2023/09/16 06:17:05;;;;;;;21.58;19.67;;;;;;;;;;5055427;28;20424;-77
2023/09/16 06:19:32;;;;;;;21.30;19.38;;;;;;;;;;5038157;28;20439;-77
2023/09/16 06:21:58;;;;;;;20.95;18.95;;;;;;;;;;5021735;28;20428;-77
2023/09/16 06:24:24;;;;;;;20.20;18.20;;;;;;;;;;5021980;28;20408;-77
2023/09/16 06:26:51;;;;;;;17.30;15.50;;;;;;;;;;5034522;28;20243;-77
2023/09/16 06:29:17;;;;;;;18.98;17.17;;;;;;;;;;5037868;28;20467;-77
2023/09/16 06:31:43;;;;;;;17.10;15.60;;;;;;;;;;5038849;28;20273;-76
2023/09/16 06:34:09;;;;;;;17.63;15.83;;;;;;;;;;5022803;28;20203;-76
2023/09/16 06:36:38;;;;;;;17.80;16.13;;;;;;;;;;5038821;28;20210;-76
2023/09/16 06:39:07;;;;;;;17.57;15.63;;;;;;;;;;5039356;28;20172;-76
2023/09/16 06:41:33;;;;;;;18.07;16.03;;;;;;;;;;5056126;28;20203;-76
2023/09/16 06:43:59;;;;;;;16.70;15.13;;;;;;;;;;5038971;28;20199;-76
2023/09/16 06:46:25;;;;;;;19.95;18.13;;;;;;;;;;5037482;28;20416;-80
2023/09/16 06:48:51;;;;;;;17.00;15.30;;;;;;;;;;5038091;28;20184;-80
2023/09/16 06:51:17;;;;;;;17.70;15.80;;;;;;;;;;5056225;28;20218;-80
2023/09/16 06:53:43;;;;;;;16.70;15.00;;;;;;;;;;5055836;28;20179;-80
2023/09/16 06:56:09;;;;;;;16.90;15.30;;;;;;;;;;5018633;28;20257;-80
2023/09/16 06:58:35;;;;;;;19.17;17.33;;;;;;;;;;5018216;28;20465;-80
2023/09/16 07:01:09;;;;;;;16.37;14.97;;;;;;;;;;5018503;28;20243;-80
2023/09/16 07:03:35;;;;;;;16.90;15.30;;;;;;;;;;5029062;28;20208;-78
2023/09/16 07:06:01;;;;;;;14.47;13.07;;;;;;;;;;5002227;28;20212;-78
2023/09/16 07:08:27;;;;;;;14.93;13.53;;;;;;;;;;5002595;28;20180;-78
2023/09/16 07:10:54;;;;;;;15.10;13.60;;;;;;;;;;5002477;28;20187;-78
2023/09/16 07:13:20;;;;;;;15.87;14.20;;;;;;;;;;5036070;28;20179;-78
2023/09/16 07:15:56;;;;;;;16.03;14.43;;;;;;;;;;5002315;28;20180;-78
2023/09/16 07:18:22;;;;;;;16.27;14.70;;;;;;;;;;5018383;28;20184;-78
2023/09/16 07:20:49;;;;;;;15.40;14.00;;;;;;;;;;5034876;28;20219;-80
2023/09/16 07:23:15;;;;;;;18.47;15.40;;;;;;;;;;5036097;28;21161;-80
2023/09/16 07:25:41;;;;;;;16.50;14.90;;;;;;;;;;5017859;28;20229;-80
2023/09/16 07:28:07;;;;;;;17.57;15.67;;;;;;;;;;5034911;28;20188;-80
2023/09/16 07:30:34;;;;;;;17.40;14.80;;;;;;;;;;5017244;28;20183;-80
2023/09/16 07:33:00;;;;;;;17.13;15.33;;;;;;;;;;5018094;28;20185;-80
2023/09/16 07:35:27;;;;;;;17.03;15.27;;;;;;;;;;5018082;28;20248;-81
2023/09/16 07:37:53;;;;;;;18.00;16.30;;;;;;;;;;5018167;28;20203;-80
2023/09/16 07:40:19;;;;;;;17.50;15.70;;;;;;;;;;5017849;28;20185;-80
2023/09/16 07:42:45;;;;;;;16.97;15.40;;;;;;;;;;5034165;28;20177;-80
2023/09/16 07:45:11;;;;;;;17.30;15.60;;;;;;;;;;5034181;28;20207;-80
2023/09/16 07:47:37;;;;;;;17.67;15.97;;;;;;;;;;5017653;28;20223;-77
2023/09/16 07:50:03;;;;;;;16.27;14.67;;;;;;;;;;5017913;28;20176;-77
2023/09/16 07:52:30;;;;;;;15.83;14.43;;;;;;;;;;5035230;28;20173;-77
2023/09/16 07:54:57;;;;;;;16.57;14.80;;;;;;;;;;5035232;28;20184;-79
2023/09/16 07:57:23;;;;;;;16.63;14.90;;;;;;;;;;5035256;28;20267;-79
2023/09/16 07:59:49;;;;;;;16.40;14.80;;;;;;;;;;5017815;28;20189;-79
2023/09/16 08:02:16;;;;;;;16.47;14.77;;;;;;;;;;5017415;28;20212;-79
2023/09/16 08:04:42;;;;;;;16.17;14.57;;;;;;;;;;5017584;28;20181;-79
2023/09/16 08:07:08;;;;;;;15.70;14.17;;;;;;;;;;5017772;28;20184;-79
2023/09/16 08:09:34;;;;;;;15.33;13.80;;;;;;;;;;5034872;28;20248;-79
2023/09/16 08:12:00;;;;;;;16.17;14.47;;;;;;;;;;5017538;28;20268;-77
2023/09/16 08:14:26;;;;;;;15.27;13.83;;;;;;;;;;5034704;28;20238;-77
2023/09/16 08:16:56;;;;;;;15.50;13.87;;;;;;;;;;5033548;28;20195;-77
2023/09/16 08:19:22;;;;;;;14.90;13.40;;;;;;;;;;5033888;28;20177;-77
2023/09/16 08:21:49;;;;;;;15.97;14.47;;;;;;;;;;5017130;28;20212;-77
2023/09/16 08:24:15;;;;;;;15.63;14.13;;;;;;;;;;5017705;28;20177;-77
2023/09/16 08:26:41;;;;;;;16.33;14.83;;;;;;;;;;5017204;28;20311;-76
2023/09/16 08:29:07;;;;;;;15.50;14.07;;;;;;;;;;5034883;28;20204;-76
2023/09/16 08:31:33;;;;;;;15.33;13.80;;;;;;;;;;5001022;28;20223;-76
2023/09/16 08:34:02;;;;;;;14.17;12.87;;;;;;;;;;5016791;28;20181;-76
2023/09/16 08:36:28;;;;;;;15.10;13.70;;;;;;;;;;5033876;28;20409;-76
2023/09/16 08:38:54;;;;;;;14.80;13.27;;;;;;;;;;5033910;28;20416;-76
2023/09/16 08:41:46;;;;;;;13.73;12.43;;;;;;;;;;5016514;28;20315;-76
2023/09/16 08:44:16;;;;;;;12.43;11.33;;;;;;;;;;4986713;28;20241;-77
2023/09/16 08:46:46;;;;;;;12.32;11.23;;;;;;;;;;5021161;28;20417;-77
2023/09/16 08:49:13;;;;;;;11.77;10.60;;;;;;;;;;5056463;28;20167;-77
2023/09/16 08:51:41;;;;;;;10.87;9.80;;;;;;;;;;5041900;28;20222;-77
2023/09/16 08:54:08;;;;;;;11.07;10.07;;;;;;;;;;5036646;28;20183;-77
2023/09/16 08:56:34;;;;;;;10.40;9.50;;;;;;;;;;5043582;22;20227;-76
2023/09/16 08:59:01;;;;;;;10.00;9.00;;;;;;;;;;5025132;28;20186;-76
2023/09/16 09:01:27;;;;;;;12.50;9.20;;;;;;;;;;5073732;28;20211;-78
2023/09/16 09:03:53;;;;;;;10.13;9.23;;;;;;;;;;5039661;28;20189;-78
2023/09/16 09:06:21;;;;;;;10.20;9.20;;;;;;;;;;5073737;28;20178;-78
2023/09/16 09:08:47;;;;;;;9.40;8.50;;;;;;;;;;5056153;28;20191;-75
2023/09/16 09:11:15;;;;;;;9.82;8.93;;;;;;;;;;5055888;28;20197;-76
2023/09/16 09:13:45;;;;;;;10.05;9.05;;;;;;;;;;5039447;28;20248;-75
2023/09/16 09:16:12;;;;;;;11.32;9.02;;;;;;;;;;5055822;28;20179;-76
2023/09/16 09:18:39;;;;;;;11.23;10.15;;;;;;;;;;5055980;28;20179;-77
2023/09/16 09:21:05;;;;;;;11.35;9.25;;;;;;;;;;5055753;28;20214;-77
2023/09/16 09:23:33;;;;;;;10.57;9.48;;;;;;;;;;5055839;28;20194;-77
2023/09/16 09:25:59;;;;;;;10.65;9.23;;;;;;;;;;5055689;28;20193;-77
2023/09/16 09:28:27;;;;;;;9.70;8.80;;;;;;;;;;5039151;28;20172;-77
2023/09/16 09:30:53;;;;;;;10.60;9.40;;;;;;;;;;5073848;28;20179;-78
2023/09/16 09:33:20;;;;;;;11.25;9.63;;;;;;;;;;5055507;28;20232;-74
2023/09/16 09:35:46;;;;;;;11.20;10.10;;;;;;;;;;5055864;28;20183;-75
2023/09/16 09:38:14;;;;;;;10.13;9.13;;;;;;;;;;5039086;28;20207;-75
2023/09/16 09:40:42;;;;;;;15.73;9.13;;;;;;;;;;5059792;28;20204;-75
2023/09/16 09:43:08;;;;;;;10.00;8.57;;;;;;;;;;5019885;28;20173;-75
2023/09/16 09:45:37;;;;;;;9.60;8.65;;;;;;;;;;5053976;28;20195;-75
2023/09/16 09:48:04;;;;;;;10.23;9.13;;;;;;;;;;5046703;28;20179;-75
2023/09/16 09:50:30;;;;;;;10.57;8.95;;;;;;;;;;5055655;28;20187;-79
2023/09/16 09:52:56;;;;;;;9.60;8.60;;;;;;;;;;5040465;28;20205;-82
2023/09/16 09:55:24;;;;;;;8.25;7.43;;;;;;;;;;5037713;28;20218;-82
2023/09/16 09:57:51;;;;;;;9.38;8.45;;;;;;;;;;5059687;28;20324;-82
2023/09/16 10:00:18;;;;;;;37.70;8.65;;;;;;;;;;5059461;28;20225;-81
2023/09/16 10:02:44;;;;;;;11.20;6.95;;;;;;;;;;5051528;28;20186;-81
2023/09/16 10:05:15;;;;;;;7.43;6.70;;;;;;;;;;5055486;28;20215;-81
2023/09/16 10:07:42;;;;;;;9.75;6.93;;;;;;;;;;5039734;28;20192;-78
2023/09/16 10:10:20;;;;;;;8.60;6.80;;;;;;;;;;5048815;28;20259;-78
2023/09/16 10:12:46;;;;;;;10.60;7.32;;;;;;;;;;5047714;28;20186;-78
2023/09/16 10:15:13;;;;;;;9.25;7.68;;;;;;;;;;5022678;28;20208;-78
2023/09/16 10:17:40;;;;;;;7.65;6.80;;;;;;;;;;5038966;28;20186;-78
2023/09/16 10:20:09;;;;;;;8.93;6.20;;;;;;;;;;5022554;28;20180;-78
2023/09/16 10:22:35;;;;;;;6.28;5.68;;;;;;;;;;5023121;28;20188;-78
2023/09/16 10:25:01;;;;;;;6.80;5.93;;;;;;;;;;5022148;28;20179;-77
2023/09/16 10:27:29;;;;;;;8.75;5.90;;;;;;;;;;5035581;28;20188;-79
2023/09/16 10:29:56;;;;;;;6.35;5.13;;;;;;;;;;5036782;28;20253;-77
2023/09/16 10:32:22;;;;;;;6.38;5.50;;;;;;;;;;5022173;28;20181;-78
2023/09/16 10:34:49;;;;;;;7.43;5.45;;;;;;;;;;5035965;28;20215;-78
2023/09/16 10:37:19;;;;;;;8.23;5.45;;;;;;;;;;5029012;28;20187;-76
2023/09/16 10:39:49;;;;;;;7.00;5.55;;;;;;;;;;5059786;28;20179;-78
2023/09/16 10:42:16;;;;;;;6.18;4.80;;;;;;;;;;5047695;28;20211;-79
2023/09/16 10:44:43;;;;;;;5.32;4.82;;;;;;;;;;5015323;28;20234;-78
2023/09/16 10:47:09;;;;;;;5.68;4.20;;;;;;;;;;5033933;28;20180;-78
2023/09/16 10:49:35;;;;;;;5.43;4.93;;;;;;;;;;5042978;28;20263;-79
2023/09/16 10:52:05;;;;;;;5.25;4.50;;;;;;;;;;5053282;28;20179;-79
2023/09/16 10:55:01;;;;;;;4.72;4.22;;;;;;;;;;5038798;28;20246;-79
2023/09/16 10:57:32;;;;;;;4.90;4.40;;;;;;;;;;4968865;28;20242;-79
2023/09/16 11:00:00;;;;;;;4.82;4.40;;;;;;;;;;5037218;28;20262;-79
2023/09/16 11:02:33;;;;;;;4.72;3.83;;;;;;;;;;5055325;28;20208;-79
2023/09/16 11:04:59;;;;;;;4.60;4.13;;;;;;;;;;5038910;28;20187;-79
2023/09/16 11:07:26;;;;;;;5.07;4.60;;;;;;;;;;5039952;28;20174;-79
2023/09/16 11:09:53;;;;;;;5.68;4.55;;;;;;;;;;5038060;28;20256;-79
2023/09/16 11:12:19;;;;;;;5.05;4.55;;;;;;;;;;5019767;28;20185;-80
2023/09/16 11:14:45;;;;;;;4.82;3.88;;;;;;;;;;5052385;28;20188;-76
2023/09/16 11:17:15;;;;;;;6.32;3.78;;;;;;;;;;5059558;28;20241;-76
2023/09/16 11:19:42;;;;;;;5.20;3.92;;;;;;;;;;5040753;28;20190;-76
2023/09/16 11:22:09;;;;;;;7.07;4.32;;;;;;;;;;5065402;28;20218;-76
2023/09/16 11:24:35;;;;;;;4.15;3.75;;;;;;;;;;5066132;28;20183;-76
2023/09/16 11:27:01;;;;;;;5.15;4.38;;;;;;;;;;5046147;28;20183;-76
2023/09/16 11:29:28;;;;;;;5.20;4.70;;;;;;;;;;5051339;28;20192;-76
2023/09/16 11:31:55;;;;;;;5.53;4.13;;;;;;;;;;5035644;28;20272;-78
2023/09/16 11:34:23;;;;;;;5.63;4.15;;;;;;;;;;5036423;28;20215;-78
2023/09/16 11:36:57;;;;;;;5.07;4.57;;;;;;;;;;5022410;28;20195;-78
2023/09/16 11:39:32;;;;;;;5.82;5.30;;;;;;;;;;5055056;28;20168;-77
2023/09/16 11:41:58;;;;;;;7.63;5.00;;;;;;;;;;5052821;28;20256;-78
2023/09/16 11:44:27;;;;;;;4.85;4.10;;;;;;;;;;5064523;28;20200;-79
2023/09/16 11:46:54;;;;;;;6.93;4.80;;;;;;;;;;5038098;28;20199;-80
2023/09/16 11:49:21;;;;;;;4.72;4.10;;;;;;;;;;5034113;28;20177;-80
2023/09/16 11:51:51;;;;;;;4.43;4.00;;;;;;;;;;5029667;28;20180;-81
2023/09/16 11:54:17;;;;;;;7.57;4.00;;;;;;;;;;5038226;28;20172;-81
2023/09/16 11:56:43;;;;;;;4.75;4.35;;;;;;;;;;5053801;28;20219;-81
2023/09/16 11:59:11;;;;;;;5.13;4.00;;;;;;;;;;5036064;28;20225;-81
2023/09/16 12:01:40;;;;;;;5.18;4.68;;;;;;;;;;5036951;28;20233;-81
2023/09/16 12:04:07;;;;;;;5.63;4.60;;;;;;;;;;5037604;28;20211;-79
2023/09/16 12:06:35;;;;;;;5.18;4.50;;;;;;;;;;5054830;28;20176;-79
2023/09/16 12:09:01;;;;;;;4.18;3.78;;;;;;;;;;5054730;28;20182;-79
2023/09/16 12:11:27;;;;;;;5.15;4.20;;;;;;;;;;5020756;28;20176;-79
2023/09/16 12:13:54;;;;;;;5.75;3.85;;;;;;;;;;5019910;28;20191;-79
2023/09/16 12:16:20;;;;;;;33.47;27.60;;;;;;;;;;5035515;28;20179;-78
2023/09/16 12:18:47;;;;;;;4.53;3.60;;;;;;;;;;5036718;28;20266;-78
2023/09/16 12:21:13;;;;;;;6.63;3.55;;;;;;;;;;5020532;28;20208;-78
2023/09/16 12:23:41;;;;;;;4.63;3.83;;;;;;;;;;5021116;28;20177;-78
2023/09/16 12:26:11;;;;;;;3.90;3.40;;;;;;;;;;5054178;28;20168;-77
2023/09/16 12:28:38;;;;;;;5.05;3.45;;;;;;;;;;5036699;28;20180;-77
2023/09/16 12:31:08;;;;;;;7.95;3.30;;;;;;;;;;5036662;28;20172;-78
2023/09/16 12:33:38;;;;;;;5.32;3.80;;;;;;;;;;5036166;28;20184;-77
2023/09/16 12:36:05;;;;;;;4.28;3.90;;;;;;;;;;5036600;28;20188;-77
2023/09/16 12:38:34;;;;;;;4.35;3.95;;;;;;;;;;5020667;28;20268;-80
2023/09/16 12:41:02;;;;;;;4.88;3.50;;;;;;;;;;5036700;28;20192;-81
2023/09/16 12:43:28;;;;;;;3.85;3.42;;;;;;;;;;5036478;28;20168;-81
2023/09/16 12:45:55;;;;;;;4.13;3.72;;;;;;;;;;5053987;28;20180;-81
2023/09/16 12:48:21;;;;;;;3.78;3.47;;;;;;;;;;5051582;28;20172;-81
2023/09/16 12:50:47;;;;;;;4.65;4.20;;;;;;;;;;5053749;28;20192;-81
2023/09/16 12:53:13;;;;;;;4.40;4.00;;;;;;;;;;5035993;28;20187;-81
2023/09/16 12:55:41;;;;;;;6.57;4.88;;;;;;;;;;5036481;28;20286;-81
2023/09/16 12:58:10;;;;;;;5.60;4.05;;;;;;;;;;5036054;28;20179;-83
2023/09/16 13:00:36;;;;;;;4.53;4.05;;;;;;;;;;5035742;28;20192;-83
2023/09/16 13:03:02;;;;;;;4.82;4.28;;;;;;;;;;5033331;28;20180;-83
2023/09/16 13:05:28;;;;;;;5.45;4.95;;;;;;;;;;5027458;28;20219;-84
2023/09/16 13:07:58;;;;;;;5.93;4.90;;;;;;;;;;5016416;28;20184;-84
2023/09/16 13:10:24;;;;;;;6.45;4.65;;;;;;;;;;5044520;28;20182;-77
2023/09/16 13:12:51;;;;;;;4.95;3.85;;;;;;;;;;5036477;28;20267;-77
2023/09/16 13:15:22;;;;;;;4.40;4.00;;;;;;;;;;5019712;28;20187;-77
2023/09/16 13:17:49;;;;;;;5.03;4.10;;;;;;;;;;5033777;28;20215;-77
2023/09/16 13:20:16;;;;;;;4.72;4.32;;;;;;;;;;5053921;28;20172;-77
2023/09/16 13:22:43;;;;;;;5.63;4.72;;;;;;;;;;5053863;28;20229;-77
2023/09/16 13:25:28;;;;;;;5.18;4.40;;;;;;;;;;5036124;28;20206;-77
2023/09/16 13:27:54;;;;;;;4.88;4.03;;;;;;;;;;5053196;28;20175;-80
2023/09/16 13:30:20;;;;;;;4.97;4.47;;;;;;;;;;5040101;28;20184;-80
2023/09/16 13:32:53;;;;;;;4.90;4.35;;;;;;;;;;5035973;28;20267;-80
2023/09/16 13:35:20;;;;;;;5.10;4.57;;;;;;;;;;5057087;28;20180;-80
2023/09/16 13:37:46;;;;;;;5.30;4.80;;;;;;;;;;5020539;28;20432;-80
2023/09/16 13:40:15;;;;;;;6.15;4.50;;;;;;;;;;5056161;28;20415;-80
2023/09/16 13:42:44;;;;;;;6.63;4.50;;;;;;;;;;5021995;28;20447;-80
2023/09/16 13:45:10;;;;;;;5.40;4.63;;;;;;;;;;5019997;28;20419;-82
2023/09/16 13:47:36;;;;;;;6.38;4.70;;;;;;;;;;5040003;28;20487;-82
2023/09/16 13:50:04;;;;;;;5.28;4.78;;;;;;;;;;5032668;28;20426;-82
2023/09/16 13:52:30;;;;;;;7.18;5.72;;;;;;;;;;5023425;28;20195;-81
2023/09/16 13:54:56;;;;;;;4.90;4.45;;;;;;;;;;5036407;28;20188;-81
2023/09/16 13:57:22;;;;;;;5.85;4.55;;;;;;;;;;5037026;28;20246;-80
2023/09/16 13:59:49;;;;;;;6.63;5.35;;;;;;;;;;5038463;28;20184;-77
2023/09/16 14:02:15;;;;;;;5.85;4.97;;;;;;;;;;5038857;28;20211;-76
2023/09/16 14:04:41;;;;;;;5.88;4.57;;;;;;;;;;5022246;28;20219;-78
2023/09/16 14:07:07;;;;;;;5.95;4.97;;;;;;;;;;5003154;28;20189;-78
2023/09/16 14:09:33;;;;;;;19.40;5.07;;;;;;;;;;5053647;28;20184;-78
2023/09/16 14:11:59;;;;;;;15.18;5.53;;;;;;;;;;5020765;28;20432;-77
2023/09/16 14:14:25;;;;;;;5.72;4.55;;;;;;;;;;5039065;28;20184;-77
2023/09/16 14:16:51;;;;;;;8.38;4.93;;;;;;;;;;5022502;28;20203;-77
2023/09/16 14:19:19;;;;;;;5.60;5.20;;;;;;;;;;5037681;28;20204;-77
2023/09/16 14:21:45;;;;;;;5.45;4.95;;;;;;;;;;5056528;28;20200;-77
2023/09/16 14:24:12;;;;;;;6.75;5.00;;;;;;;;;;5038584;28;20350;-77
2023/09/16 14:26:38;;;;;;;5.43;4.93;;;;;;;;;;5036996;28;20187;-77